Bienvenue à Ascain au Pied de la montagne de La Rhune





Visitez nos autres sites:

Radar Aviation Bordeaux

La Station sur le réseau APRS



Pas de vigilance météorologique particulière.    Il n'y a aucun avertissement

Rapports METAR proximité

   
EBBR - Brussels International Airport, Belgium
Distance: O 14 km
Mise à jour: 25-09-2017 15:20
Peu de nuages  
Peu de nuages  
   Vent: ENE 11.1 km/h
Vent: ENE 11.1 km/h
Température: 19°C
Point de rosée: 11°C
Humidité: 60%
Baromètre: 1020 hPa
Nuages: Peu de nuages
visibilité: Plus 10 km
Détails des nuages: Peu de nuages 3400 ft
EBBR 251320Z 07006KT 030V110 9999 FEW034 19/11 Q1020 NOSIG
EBBE - Beauvechain (Bevekom), Belgium
Distance: SSE 17 km
Mise à jour: 25-09-2017 14:55
Peu de nuages  
Peu de nuages  
   Vent: ENE 11.1 km/h
Vent: ENE 11.1 km/h
Température: 19°C
Point de rosée: 11°C
Humidité: 60%
Baromètre: 1020 hPa
Nuages: Peu de nuages
visibilité: Plus 10 km
Détails des nuages: Peu de nuages 3500 ft
EBBE 251255Z 06006KT 9999 FEW035 19/11 Q1020 BLU BLU
EBDT - Schaffen, Belgium
Distance: ENE 29 km
Mise à jour: 25-09-2017 14:55
Peu de nuages  
Peu de nuages  
   Vent: Est 9.3 km/h
Vent: Est 9.3 km/h
Température: 19°C
Point de rosée: 11°C
Humidité: 60%
Baromètre: 1020 hPa
Nuages: Peu de nuages
visibilité: Plus 10 km
Détails des nuages: Peu de nuages 2800 ft
EBDT 251255Z 09005KT 9999 FEW028 19/11 Q1020 BLU BLU
EBAW - Antwerp/Deurne, Belgium
Distance: NNO 38 km
Mise à jour: 25-09-2017 15:20
Peu de nuages  
Peu de nuages  
   Vent: Est 11.1 km/h
Vent: Est 11.1 km/h
Température: 19°C
Point de rosée: 12°C
Humidité: 64%
Baromètre: 1020 hPa
Nuages: Peu de nuages
visibilité: Plus 10 km
Détails des nuages: Peu de nuages 2700 ft
EBAW 251320Z 09006KT 030V150 9999 FEW027 19/12 Q1020 NOSIG
EBCI - Charleroi/Gosselies, Belgium
Distance: SSO 51 km
Mise à jour: 25-09-2017 15:20
Claires  
Claires  
   Vent: ENE 11.1 km/h
Vent: ENE 11.1 km/h
Température: 20°C
Point de rosée: 9°C
Humidité: 49%
Baromètre: 1019 hPa
visibilité: Plus 10 km
Détails des nuages: Claires
EBCI 251320Z 07006KT 350V110 CAVOK 20/09 Q1019 NOSIG
EBLG - Bierset/Liege, Belgium
Distance: ESE 60 km
Mise à jour: 25-09-2017 15:20
Peu de nuages  
Peu de nuages  
   Vent: NNE 11.1 km/h
Vent: NNE 11.1 km/h
Température: 18°C
Point de rosée: 10°C
Humidité: 60%
Baromètre: 1019 hPa
Nuages: Peu de nuages
visibilité: Plus 10 km
Détails des nuages: Peu de nuages 3600 ft
EBLG 251320Z 03006KT 360V060 9999 FEW036 18/10 Q1019 NOSIG

Script développé par  Saratoga-weather.org Adapté pour le modèle par  Weerstation Leuven

Vous trouverez notre info météo Également à:

Weather Underground

AWEKAS

Citizen Weather Observer Program (CWOP)

HAMweather, WeatherForYou, PWS Weather